createdAt,value
2019-04-27T00:01:23.380Z,98173.20
2019-04-27T00:04:11.702Z,98169.33
2019-04-27T00:06:46.427Z,98175.02
2019-04-27T00:09:36.275Z,98175.94
2019-04-27T00:12:10.348Z,98162.52
2019-04-27T00:14:41.586Z,98169.91
2019-04-27T00:17:45.745Z,98171.61
2019-04-27T00:20:26.403Z,98173.19
2019-04-27T00:23:03.370Z,98162.98
2019-04-27T00:25:32.904Z,98157.97
2019-04-27T00:28:03.563Z,98156.37
2019-04-27T00:30:35.691Z,98149.02
2019-04-27T00:33:07.101Z,98147.09
2019-04-27T00:35:43.905Z,98153.66
2019-04-27T00:38:33.362Z,98149.59
2019-04-27T00:41:06.051Z,98136.86
2019-04-27T00:43:35.749Z,98140.03
2019-04-27T00:46:05.171Z,98129.83
2019-04-27T00:48:36.045Z,98125.50
2019-04-27T00:51:05.659Z,98125.41
2019-04-27T00:53:36.327Z,98121.20
2019-04-27T00:56:37.014Z,98117.77
2019-04-27T00:59:24.320Z,98114.59
2019-04-27T01:02:18.834Z,98116.88
2019-04-27T01:04:48.659Z,98108.14
2019-04-27T01:07:18.140Z,98105.63
2019-04-27T01:09:50.297Z,98103.04
2019-04-27T01:12:20.741Z,98101.67
2019-04-27T01:14:50.389Z,98105.53
2019-04-27T01:17:19.860Z,98113.46
2019-04-27T01:19:49.617Z,98108.02
2019-04-27T01:22:19.024Z,98108.70
2019-04-27T01:24:49.213Z,98109.38
2019-04-27T01:27:40.639Z,98111.88
2019-04-27T01:30:19.137Z,98116.84
2019-04-27T01:32:49.374Z,98117.45
2019-04-27T01:35:21.966Z,98111.88
2019-04-27T01:37:51.278Z,98109.83
2019-04-27T01:40:20.708Z,98112.91
2019-04-27T01:42:50.494Z,98122.11
2019-04-27T01:45:20.937Z,98117.21
2019-04-27T01:47:50.320Z,98115.97
2019-04-27T01:50:19.716Z,98112.78
2019-04-27T01:52:49.360Z,98119.04
2019-04-27T01:55:20.378Z,98118.01
2019-04-27T01:57:50.065Z,98114.94
2019-04-27T02:00:50.540Z,98117.10
2019-04-27T02:03:23.516Z,98115.95
2019-04-27T02:05:54.729Z,98120.25
2019-04-27T02:08:25.758Z,98117.31
2019-04-27T02:10:55.347Z,98118.02
2019-04-27T02:13:29.011Z,98117.00
2019-04-27T02:15:58.961Z,98122.55
2019-04-27T02:18:36.841Z,98117.80
2019-04-27T02:20:59.903Z,98122.54
2019-04-27T02:23:29.483Z,98117.79
2019-04-27T02:25:59.276Z,98117.33
2019-04-27T02:28:35.573Z,98110.96
2019-04-27T02:31:22.971Z,98108.68
2019-04-27T02:34:01.108Z,98112.12
2019-04-27T02:36:30.682Z,98104.82
2019-04-27T02:38:59.986Z,98108.48
2019-04-27T02:41:29.761Z,98101.08
2019-04-27T02:44:11.081Z,98100.63
2019-04-27T02:46:43.436Z,98102.57
2019-04-27T02:49:12.921Z,98100.50
2019-04-27T02:52:00.118Z,98100.41
2019-04-27T02:54:30.010Z,98097.13
2019-04-27T02:56:59.640Z,98108.02
2019-04-27T02:59:30.355Z,98105.06
2019-04-27T03:02:05.781Z,98107.90
2019-04-27T03:04:35.389Z,98102.56
2019-04-27T03:07:04.859Z,98102.47
2019-04-27T03:09:34.702Z,98105.08
2019-04-27T03:12:10.247Z,98106.43
2019-04-27T03:14:50.669Z,98108.92
2019-04-27T03:17:39.538Z,98104.27
2019-04-27T03:20:15.173Z,98109.59
2019-04-27T03:22:49.763Z,98108.25
2019-04-27T03:25:41.487Z,98099.40
2019-04-27T03:28:13.544Z,98103.58
2019-04-27T03:30:46.372Z,98090.07
2019-04-27T03:33:21.634Z,98088.94
2019-04-27T03:35:52.977Z,98091.91
2019-04-27T03:38:22.756Z,98081.92
2019-04-27T03:40:52.996Z,98082.38
2019-04-27T03:43:24.935Z,98081.91
2019-04-27T03:45:55.156Z,98087.12
2019-04-27T03:48:29.376Z,98082.60
2019-04-27T03:51:13.322Z,98084.06
2019-04-27T03:54:02.044Z,98083.72
2019-04-27T03:56:35.392Z,98084.87
2019-04-27T03:59:19.541Z,98087.47
2019-04-27T04:01:50.688Z,98083.50
2019-04-27T04:04:20.968Z,98082.38
2019-04-27T04:06:50.723Z,98086.10
2019-04-27T04:09:29.613Z,98089.63
2019-04-27T04:12:04.567Z,98086.91
2019-04-27T04:14:36.720Z,98088.02
2019-04-27T04:17:09.869Z,98091.77
2019-04-27T04:19:51.059Z,98088.51
2019-04-27T04:22:10.382Z,98083.73
2019-04-27T04:24:42.596Z,98091.89
2019-04-27T04:27:12.286Z,98089.40
2019-04-27T04:29:41.795Z,98098.16
2019-04-27T04:32:11.535Z,98097.81
2019-04-27T04:34:41.358Z,98096.68
2019-04-27T04:37:11.546Z,98100.31
2019-04-27T04:39:41.342Z,98102.13
2019-04-27T04:42:30.157Z,98118.22
2019-04-27T04:45:21.922Z,98118.47
2019-04-27T04:48:00.287Z,98115.06
2019-04-27T04:50:30.470Z,98112.11
2019-04-27T04:53:00.117Z,98115.95
2019-04-27T04:55:31.654Z,98113.09
2019-04-27T04:58:02.487Z,98108.48
2019-04-27T05:00:31.958Z,98110.29
2019-04-27T05:03:01.674Z,98111.66
2019-04-27T05:05:31.146Z,98119.56
2019-04-27T05:08:00.887Z,98111.66
2019-04-27T05:10:31.233Z,98116.66
2019-04-27T05:13:00.902Z,98114.83
2019-04-27T05:15:30.398Z,98126.64
2019-04-27T05:18:00.120Z,98125.84
2019-04-27T05:20:39.699Z,98125.05
2019-04-27T05:23:09.706Z,98125.56
2019-04-27T05:25:42.484Z,98128.00
2019-04-27T05:28:12.166Z,98128.80
2019-04-27T05:30:41.733Z,98126.18
2019-04-27T05:33:11.060Z,98131.20
2019-04-27T05:35:41.047Z,98127.56
2019-04-27T05:38:13.235Z,98128.00
2019-04-27T05:40:41.904Z,98130.73
2019-04-27T05:43:25.547Z,98129.37
2019-04-27T05:46:41.816Z,98132.32
2019-04-27T05:49:18.786Z,98133.66
2019-04-27T05:51:50.137Z,98128.91
2019-04-27T05:54:20.175Z,98133.90
2019-04-27T05:56:49.691Z,98132.66
2019-04-27T05:59:19.841Z,98135.74
2019-04-27T06:01:49.894Z,98139.14
2019-04-27T06:04:21.253Z,98136.86
2019-04-27T06:06:50.788Z,98135.48
2019-04-27T06:09:23.008Z,98137.63
2019-04-27T06:11:52.454Z,98134.34
2019-04-27T06:14:23.106Z,98132.75
2019-04-27T06:16:52.893Z,98130.02
2019-04-27T06:19:22.381Z,98135.91
2019-04-27T06:21:51.732Z,98139.12
2019-04-27T06:24:29.805Z,98128.55
2019-04-27T06:26:54.309Z,98134.12
2019-04-27T06:29:24.143Z,98122.11
2019-04-27T06:31:54.159Z,98129.02
2019-04-27T06:34:28.734Z,98129.91
2019-04-27T06:36:59.920Z,98130.93
2019-04-27T06:39:35.277Z,98132.00
2019-04-27T06:42:18.169Z,98136.81
2019-04-27T06:44:43.009Z,98142.72
2019-04-27T06:47:19.308Z,98131.36
2019-04-27T06:49:51.780Z,98134.34
2019-04-27T06:52:21.376Z,98132.41
2019-04-27T06:54:51.646Z,98132.97
2019-04-27T06:57:26.281Z,98134.00
2019-04-27T06:59:55.699Z,98132.72
2019-04-27T07:02:25.074Z,98140.48
2019-04-27T07:04:54.587Z,98143.86
2019-04-27T07:07:24.337Z,98143.37
2019-04-27T07:09:54.003Z,98144.42
2019-04-27T07:12:23.628Z,98145.91
2019-04-27T07:14:55.622Z,98137.80
2019-04-27T07:17:25.488Z,98148.37
2019-04-27T07:19:54.918Z,98141.69
2019-04-27T07:22:24.877Z,98147.43
2019-04-27T07:24:54.335Z,98144.70
2019-04-27T07:27:25.459Z,98146.08
2019-04-27T07:29:55.962Z,98140.71
2019-04-27T07:32:25.316Z,98143.95
2019-04-27T07:34:56.063Z,98142.16
2019-04-27T07:37:25.394Z,98137.59
2019-04-27T07:39:54.941Z,98134.36
2019-04-27T07:42:24.564Z,98137.45
2019-04-27T07:45:03.181Z,98135.30
2019-04-27T07:47:32.837Z,98135.23
2019-04-27T07:50:02.175Z,98136.45
2019-04-27T07:52:33.236Z,98126.52
2019-04-27T07:55:02.928Z,98126.74
2019-04-27T07:57:32.552Z,98118.59
2019-04-27T08:00:01.942Z,98118.30
2019-04-27T08:02:32.379Z,98119.77
2019-04-27T08:05:01.650Z,98113.13
2019-04-27T08:07:31.010Z,98120.64
2019-04-27T08:10:01.448Z,98119.37
2019-04-27T08:12:32.683Z,98111.50
2019-04-27T08:15:02.210Z,98108.30
2019-04-27T08:17:31.534Z,98108.67
2019-04-27T08:20:02.139Z,98112.03
2019-04-27T08:22:31.539Z,98101.61
2019-04-27T08:25:01.978Z,98113.22
2019-04-27T08:28:00.230Z,98106.94
2019-04-27T08:30:39.467Z,98107.62
2019-04-27T08:33:09.757Z,98110.00
2019-04-27T08:35:42.399Z,98101.86
2019-04-27T08:38:12.009Z,98101.84
2019-04-27T08:40:41.541Z,98095.46
2019-04-27T08:43:11.233Z,98085.34
2019-04-27T08:45:40.704Z,98088.42
2019-04-27T08:48:10.285Z,98087.63
2019-04-27T08:50:42.067Z,98090.48
2019-04-27T08:53:12.969Z,98087.36
2019-04-27T08:55:42.454Z,98090.38
2019-04-27T08:58:15.274Z,98086.33
2019-04-27T09:00:44.543Z,98088.27
2019-04-27T09:03:13.819Z,98083.86
2019-04-27T09:05:43.142Z,98079.45
2019-04-27T09:08:24.515Z,98081.11
2019-04-27T09:11:08.919Z,98067.55
2019-04-27T09:13:58.899Z,98067.49
2019-04-27T09:17:00.267Z,98066.59
2019-04-27T09:19:49.845Z,98060.86
2019-04-27T09:22:20.790Z,98056.52
2019-04-27T09:24:50.518Z,98045.81
2019-04-27T09:27:21.730Z,98055.31
2019-04-27T09:29:52.716Z,98046.66
2019-04-27T09:32:22.330Z,98037.66
2019-04-27T09:34:52.038Z,98034.81
2019-04-27T09:37:22.746Z,98036.16
2019-04-27T09:39:53.992Z,98029.25
2019-04-27T09:42:23.554Z,98034.59
2019-04-27T09:44:53.602Z,98029.16
2019-04-27T09:47:22.975Z,98022.27
2019-04-27T09:50:08.943Z,98023.86
2019-04-27T09:52:38.906Z,98025.38
2019-04-27T09:55:08.602Z,98023.53
2019-04-27T09:57:38.126Z,98014.05
2019-04-27T10:00:09.858Z,98012.11
2019-04-27T10:02:39.477Z,98008.09
2019-04-27T10:05:09.407Z,98004.44
2019-04-27T10:07:40.488Z,97999.83
2019-04-27T10:10:10.075Z,97992.68
2019-04-27T10:12:41.375Z,97987.69
2019-04-27T10:15:13.685Z,97976.00
2019-04-27T10:17:43.201Z,97972.62
2019-04-27T10:20:12.815Z,97972.88
2019-04-27T10:22:43.821Z,97965.26
2019-04-27T10:25:25.942Z,97972.45
2019-04-27T10:27:59.339Z,97972.87
2019-04-27T10:30:36.011Z,97968.73
2019-04-27T10:33:08.202Z,97971.05
2019-04-27T10:35:37.761Z,97967.55
2019-04-27T10:38:09.701Z,97967.48
2019-04-27T10:40:39.344Z,97964.50
2019-04-27T10:43:09.082Z,97963.14
2019-04-27T10:45:38.638Z,97958.34
2019-04-27T10:48:08.901Z,97959.09
2019-04-27T10:50:38.445Z,97967.24
2019-04-27T10:53:08.068Z,97973.91
2019-04-27T10:55:37.431Z,97979.31
2019-04-27T10:58:07.510Z,97978.84
2019-04-27T11:00:42.556Z,97977.32
2019-04-27T11:03:13.761Z,97981.50
2019-04-27T11:06:15.961Z,97981.19
2019-04-27T11:08:46.523Z,97984.39
2019-04-27T11:11:21.769Z,97991.05
2019-04-27T11:13:57.228Z,97987.14
2019-04-27T11:16:27.414Z,97976.36
2019-04-27T11:18:58.974Z,97972.91
2019-04-27T11:21:28.347Z,97962.00
2019-04-27T11:23:58.045Z,97953.16
2019-04-27T11:26:27.415Z,97956.49
2019-04-27T11:28:56.943Z,97953.95
2019-04-27T11:31:26.744Z,97953.72
2019-04-27T11:33:58.033Z,97943.06
2019-04-27T11:36:35.694Z,97943.56
2019-04-27T11:39:10.908Z,97943.17
2019-04-27T11:41:41.429Z,97934.13
2019-04-27T11:44:11.255Z,97932.50
2019-04-27T11:46:41.348Z,97928.70
2019-04-27T11:49:11.011Z,97927.83
2019-04-27T11:51:40.500Z,97929.48
2019-04-27T11:54:13.747Z,97933.95
2019-04-27T11:56:47.214Z,97929.25
2019-04-27T11:59:16.874Z,97934.23
2019-04-27T12:01:46.156Z,97929.67
2019-04-27T12:04:18.446Z,97945.96
2019-04-27T12:06:47.803Z,97939.48
2019-04-27T12:09:17.599Z,97938.74
2019-04-27T12:11:47.049Z,97928.19
2019-04-27T12:14:16.660Z,97927.44
2019-04-27T12:16:46.322Z,97920.84
2019-04-27T12:19:16.399Z,97912.39
2019-04-27T12:21:46.423Z,97908.03
2019-04-27T12:24:16.129Z,97905.36
2019-04-27T12:27:02.729Z,97900.92
2019-04-27T12:29:51.050Z,97892.21
2019-04-27T12:32:22.084Z,97895.20
2019-04-27T12:34:53.335Z,97889.70
2019-04-27T12:37:23.134Z,97881.45
2019-04-27T12:39:52.696Z,97887.68
2019-04-27T12:42:22.222Z,97872.00
2019-04-27T12:44:51.638Z,97881.63
2019-04-27T12:47:22.684Z,97894.68
2019-04-27T12:49:52.465Z,97904.99
2019-04-27T12:52:23.282Z,97895.92
2019-04-27T12:55:16.767Z,97898.33
2019-04-27T12:58:08.136Z,97897.02
2019-04-27T13:00:41.294Z,97901.56
2019-04-27T13:03:10.959Z,97906.44
2019-04-27T13:05:40.265Z,97909.27
2019-04-27T13:08:09.567Z,97901.70
2019-04-27T13:10:39.027Z,97901.62
2019-04-27T13:13:08.324Z,97906.55
2019-04-27T13:15:45.876Z,97901.89
2019-04-27T13:18:18.215Z,97899.94
2019-04-27T13:20:47.652Z,97896.55
2019-04-27T13:23:17.020Z,97898.85
2019-04-27T13:25:46.763Z,97903.17
2019-04-27T13:28:16.266Z,97903.95
2019-04-27T13:30:47.473Z,97897.48
2019-04-27T13:33:19.957Z,97899.63
2019-04-27T13:35:51.111Z,97894.47
2019-04-27T13:38:20.754Z,97896.90
2019-04-27T13:41:09.259Z,97887.42
2019-04-27T13:43:39.971Z,97897.30
2019-04-27T13:46:25.894Z,97889.00
2019-04-27T13:49:12.821Z,97897.48
2019-04-27T13:51:50.783Z,97892.55
2019-04-27T13:54:26.129Z,97890.58
2019-04-27T13:56:53.903Z,97882.27
2019-04-27T13:59:23.510Z,97885.55
2019-04-27T14:01:52.888Z,97889.93
2019-04-27T14:04:24.003Z,97886.70
2019-04-27T14:06:55.185Z,97899.86
2019-04-27T14:09:24.499Z,97892.57
2019-04-27T14:11:57.846Z,97908.88
2019-04-27T14:14:28.803Z,97906.88
2019-04-27T14:16:59.338Z,97907.98
2019-04-27T14:19:28.959Z,97902.70
2019-04-27T14:21:59.070Z,97902.88
2019-04-27T14:24:40.705Z,97904.19
2019-04-27T14:27:11.165Z,97900.69
2019-04-27T14:29:40.449Z,97900.36
2019-04-27T14:32:09.888Z,97895.76
2019-04-27T14:34:39.145Z,97895.25
2019-04-27T14:37:11.169Z,97897.48
2019-04-27T14:39:40.706Z,97896.41
2019-04-27T14:42:10.191Z,97892.94
2019-04-27T14:44:39.863Z,97887.84
2019-04-27T14:47:10.763Z,97881.23
2019-04-27T14:49:40.631Z,97880.56
2019-04-27T14:52:18.687Z,97886.05
2019-04-27T14:54:50.881Z,97881.66
2019-04-27T14:57:22.595Z,97872.30
2019-04-27T14:59:52.721Z,97873.91
2019-04-27T15:02:22.913Z,97871.20
2019-04-27T15:04:53.965Z,97871.06
2019-04-27T15:07:25.116Z,97874.09
2019-04-27T15:09:57.534Z,97861.27
2019-04-27T15:12:30.804Z,97865.88
2019-04-27T15:14:59.413Z,97860.05
2019-04-27T15:17:29.541Z,97869.98
2019-04-27T15:20:04.403Z,97859.56
2019-04-27T15:22:34.049Z,97861.23
2019-04-27T15:25:12.344Z,97865.72
2019-04-27T15:27:45.146Z,97877.16
2019-04-27T15:30:22.273Z,97864.31
2019-04-27T15:33:23.313Z,97866.87
2019-04-27T15:36:02.697Z,97862.67
2019-04-27T15:38:34.754Z,97866.57
2019-04-27T15:41:11.763Z,97866.36
2019-04-27T15:43:43.573Z,97860.16
2019-04-27T15:46:13.681Z,97858.72
2019-04-27T15:48:43.906Z,97859.73
2019-04-27T15:51:17.533Z,97859.30
2019-04-27T15:53:45.831Z,97851.81
2019-04-27T15:56:15.437Z,97840.98
2019-04-27T15:58:44.739Z,97838.27
2019-04-27T16:01:14.912Z,97833.38
2019-04-27T16:03:45.317Z,97829.55
2019-04-27T16:06:14.617Z,97830.64
2019-04-27T16:08:46.926Z,97822.27
2019-04-27T16:11:19.679Z,97813.59
2019-04-27T16:13:48.912Z,97810.31
2019-04-27T16:16:19.330Z,97820.48
2019-04-27T16:18:50.892Z,97819.16
2019-04-27T16:21:22.517Z,97822.22
2019-04-27T16:23:52.940Z,97820.41
2019-04-27T16:26:23.594Z,97821.99
2019-04-27T16:28:54.531Z,97822.94
2019-04-27T16:31:30.267Z,97819.25
2019-04-27T16:33:59.132Z,97820.69
2019-04-27T16:36:31.218Z,97821.27
2019-04-27T16:39:08.219Z,97817.83
2019-04-27T16:41:38.483Z,97816.43
2019-04-27T16:44:13.699Z,97818.83
2019-04-27T16:46:44.603Z,97813.90
2019-04-27T16:49:15.632Z,97833.34
2019-04-27T16:51:49.186Z,97941.77
2019-04-27T16:54:21.617Z,97932.85
2019-04-27T16:57:02.266Z,97970.99
2019-04-27T16:59:41.016Z,97964.45
2019-04-27T17:02:01.683Z,97970.70
2019-04-27T17:04:33.503Z,97968.50
2019-04-27T17:07:04.668Z,97957.48
2019-04-27T17:09:36.277Z,97952.69
2019-04-27T17:12:09.018Z,97966.83
2019-04-27T17:14:49.023Z,97984.83
2019-04-27T17:17:38.623Z,97997.00
2019-04-27T17:20:13.075Z,98003.19
2019-04-27T17:22:45.595Z,98022.09
2019-04-27T17:25:23.235Z,98025.68
2019-04-27T17:28:04.033Z,98026.19
2019-04-27T17:30:39.728Z,98037.67
2019-04-27T17:33:15.282Z,98042.45
2019-04-27T17:35:46.651Z,98043.46
2019-04-27T17:38:18.172Z,98029.75
2019-04-27T17:40:51.759Z,98025.68
2019-04-27T17:43:25.309Z,98031.91
2019-04-27T17:45:55.986Z,98036.13
2019-04-27T17:48:28.744Z,98051.50
2019-04-27T17:51:02.586Z,98058.89
2019-04-27T17:53:33.195Z,98058.09
2019-04-27T17:56:05.972Z,98061.00
2019-04-27T17:58:39.775Z,98065.89
2019-04-27T18:01:08.786Z,98061.91
2019-04-27T18:03:39.191Z,98048.06
2019-04-27T18:06:10.261Z,98040.45
2019-04-27T18:08:40.387Z,98028.81
2019-04-27T18:11:10.550Z,98020.71
2019-04-27T18:13:42.100Z,98022.45
2019-04-27T18:16:12.300Z,98020.76
2019-04-27T18:19:07.964Z,98017.11
2019-04-27T18:21:33.784Z,98024.33
2019-04-27T18:24:10.225Z,98034.03
2019-04-27T18:26:51.671Z,98034.36
2019-04-27T18:29:22.783Z,98046.30
2019-04-27T18:31:54.439Z,98058.72
2019-04-27T18:34:23.235Z,98067.58
2019-04-27T18:36:54.855Z,98078.52
2019-04-27T18:39:27.336Z,98079.79
2019-04-27T18:41:58.628Z,98079.03
2019-04-27T18:44:31.868Z,98076.08
2019-04-27T18:47:08.289Z,98080.08
2019-04-27T18:50:11.108Z,98081.09
2019-04-27T18:52:51.395Z,98076.52
2019-04-27T18:55:23.542Z,98087.94
2019-04-27T18:57:55.331Z,98096.22
2019-04-27T19:00:27.980Z,98104.61
2019-04-27T19:03:00.336Z,98115.34
2019-04-27T19:05:39.635Z,98112.63
2019-04-27T19:08:05.235Z,98104.83
2019-04-27T19:10:38.361Z,98107.05
2019-04-27T19:13:10.035Z,98105.95
2019-04-27T19:15:41.269Z,98109.47
2019-04-27T19:18:12.311Z,98102.25
2019-04-27T19:20:43.937Z,98105.84
2019-04-27T19:23:16.331Z,98102.31
2019-04-27T19:26:08.894Z,98106.86
2019-04-27T19:28:58.447Z,98108.22
2019-04-27T19:31:34.573Z,98100.19
2019-04-27T19:34:05.355Z,98100.95
2019-04-27T19:36:35.141Z,98106.06
2019-04-27T19:39:08.759Z,98098.01
2019-04-27T19:41:38.485Z,98109.48
2019-04-27T19:44:08.547Z,98113.95
2019-04-27T19:46:40.245Z,98131.31
2019-04-27T19:49:09.873Z,98138.72
2019-04-27T19:51:39.403Z,98135.53
2019-04-27T19:54:09.143Z,98137.78
2019-04-27T19:56:38.585Z,98139.98
2019-04-27T19:59:14.520Z,98133.47
2019-04-27T20:01:48.013Z,98132.88
2019-04-27T20:04:30.807Z,98138.42
2019-04-27T20:07:00.462Z,98148.07
2019-04-27T20:09:36.148Z,98143.59
2019-04-27T20:12:09.213Z,98153.50
2019-04-27T20:14:55.028Z,98146.95
2019-04-27T20:17:25.237Z,98149.02
2019-04-27T20:19:54.798Z,98138.41
2019-04-27T20:22:24.505Z,98136.66
2019-04-27T20:24:54.795Z,98137.62
2019-04-27T20:27:24.192Z,98142.30
2019-04-27T20:29:53.546Z,98142.62
2019-04-27T20:32:22.906Z,98149.11
2019-04-27T20:34:52.337Z,98147.90
2019-04-27T20:37:21.701Z,98148.97
2019-04-27T20:39:52.019Z,98154.38
2019-04-27T20:42:21.712Z,98154.88
2019-04-27T20:44:51.712Z,98155.20
2019-04-27T20:47:21.142Z,98164.94
2019-04-27T20:49:50.588Z,98164.87
2019-04-27T20:52:48.302Z,98159.42
2019-04-27T20:55:17.705Z,98164.36
2019-04-27T20:57:58.774Z,98162.70
2019-04-27T21:00:21.897Z,98172.20
2019-04-27T21:03:05.329Z,98170.83
2019-04-27T21:06:12.083Z,98183.53
2019-04-27T21:08:42.186Z,98194.34
2019-04-27T21:11:11.934Z,98195.42
2019-04-27T21:13:41.318Z,98201.40
2019-04-27T21:16:12.643Z,98201.95
2019-04-27T21:18:42.123Z,98209.11
2019-04-27T21:21:11.541Z,98214.65
2019-04-27T21:23:41.546Z,98212.33
2019-04-27T21:26:10.947Z,98217.26
2019-04-27T21:28:42.907Z,98220.64
2019-04-27T21:31:12.932Z,98233.44
2019-04-27T21:33:42.419Z,98239.42
2019-04-27T21:36:11.910Z,98236.39
2019-04-27T21:38:42.917Z,98232.40
2019-04-27T21:41:12.788Z,98232.52
2019-04-27T21:43:43.843Z,98229.32
2019-04-27T21:46:13.196Z,98228.44
2019-04-27T21:48:42.665Z,98233.75
2019-04-27T21:51:12.690Z,98225.48
2019-04-27T21:54:00.063Z,98228.20
2019-04-27T21:56:31.277Z,98227.25
2019-04-27T21:59:01.072Z,98223.42
2019-04-27T22:01:35.013Z,98223.39
2019-04-27T22:04:04.496Z,98218.20
2019-04-27T22:06:34.189Z,98225.59
2019-04-27T22:09:05.644Z,98230.78
2019-04-27T22:11:34.961Z,98236.14
2019-04-27T22:14:06.046Z,98232.58
2019-04-27T22:16:35.585Z,98235.13
2019-04-27T22:19:06.061Z,98231.22
2019-04-27T22:21:35.893Z,98235.82
2019-04-27T22:24:11.240Z,98228.16
2019-04-27T22:26:41.475Z,98240.45
2019-04-27T22:29:12.027Z,98240.95
2019-04-27T22:31:41.680Z,98244.63
2019-04-27T22:34:10.964Z,98250.94
2019-04-27T22:36:41.617Z,98265.94
2019-04-27T22:39:28.515Z,98265.55
2019-04-27T22:42:15.388Z,98280.63
2019-04-27T22:44:57.855Z,98284.24
2019-04-27T22:47:27.180Z,98289.41
2019-04-27T22:49:56.586Z,98297.33
2019-04-27T22:52:25.915Z,98296.36
2019-04-27T22:54:55.192Z,98292.69
2019-04-27T22:57:31.479Z,98291.24
2019-04-27T23:00:22.633Z,98285.99
2019-04-27T23:02:54.924Z,98285.99
2019-04-27T23:05:24.217Z,98286.06
2019-04-27T23:07:53.568Z,98286.14
2019-04-27T23:10:25.427Z,98285.27
2019-04-27T23:12:53.958Z,98279.94
2019-04-27T23:15:25.591Z,98287.42
2019-04-27T23:17:55.801Z,98294.52
2019-04-27T23:20:25.239Z,98300.29
2019-04-27T23:22:54.553Z,98290.79
2019-04-27T23:25:24.961Z,98294.62
2019-04-27T23:27:54.316Z,98308.48
2019-04-27T23:30:57.914Z,98309.94
2019-04-27T23:33:27.168Z,98308.81
2019-04-27T23:35:56.466Z,98308.42
2019-04-27T23:38:25.737Z,98308.31
2019-04-27T23:40:55.056Z,98312.65
2019-04-27T23:43:24.321Z,98303.80
2019-04-27T23:45:54.323Z,98307.37
2019-04-27T23:48:25.118Z,98304.49
2019-04-27T23:50:58.719Z,98296.03
2019-04-27T23:53:31.781Z,98304.25
2019-04-27T23:56:01.179Z,98298.84
2019-04-27T23:58:30.470Z,98303.06
